sensor_id;sensor_type;location;lat;lon;timestamp;P1;durP1;ratioP1;P2;durP2;ratioP2
23470;SDS011;11908;50.806;4.424;2023-07-20T00:00:26;5.57;;;2.33;;
23470;SDS011;11908;50.806;4.424;2023-07-20T00:02:52;4.55;;;2.53;;
23470;SDS011;11908;50.806;4.424;2023-07-20T00:05:34;5.95;;;2.40;;
23470;SDS011;11908;50.806;4.424;2023-07-20T00:08:00;9.98;;;2.72;;
23470;SDS011;11908;50.806;4.424;2023-07-20T00:10:26;9.05;;;2.85;;
23470;SDS011;11908;50.806;4.424;2023-07-20T00:12:51;6.93;;;2.38;;
23470;SDS011;11908;50.806;4.424;2023-07-20T00:15:17;8.70;;;2.60;;
23470;SDS011;11908;50.806;4.424;2023-07-20T00:17:43;4.53;;;1.98;;
23470;SDS011;11908;50.806;4.424;2023-07-20T00:20:10;9.82;;;2.60;;
23470;SDS011;11908;50.806;4.424;2023-07-20T00:22:36;6.70;;;2.70;;
23470;SDS011;11908;50.806;4.424;2023-07-20T00:25:02;7.45;;;2.45;;
23470;SDS011;11908;50.806;4.424;2023-07-20T00:27:28;7.60;;;2.60;;
23470;SDS011;11908;50.806;4.424;2023-07-20T00:29:53;7.85;;;3.00;;
23470;SDS011;11908;50.806;4.424;2023-07-20T00:32:19;15.00;;;3.90;;
23470;SDS011;11908;50.806;4.424;2023-07-20T00:34:45;3.60;;;2.35;;
23470;SDS011;11908;50.806;4.424;2023-07-20T00:37:10;7.25;;;2.53;;
23470;SDS011;11908;50.806;4.424;2023-07-20T00:39:36;7.78;;;2.60;;
23470;SDS011;11908;50.806;4.424;2023-07-20T00:42:02;5.28;;;2.55;;
23470;SDS011;11908;50.806;4.424;2023-07-20T00:44:28;6.60;;;2.67;;
23470;SDS011;11908;50.806;4.424;2023-07-20T00:46:53;10.43;;;3.03;;
23470;SDS011;11908;50.806;4.424;2023-07-20T00:49:20;10.35;;;2.97;;
23470;SDS011;11908;50.806;4.424;2023-07-20T00:51:46;6.63;;;2.95;;
23470;SDS011;11908;50.806;4.424;2023-07-20T00:54:12;6.57;;;3.08;;
23470;SDS011;11908;50.806;4.424;2023-07-20T00:56:39;5.95;;;3.10;;
23470;SDS011;11908;50.806;4.424;2023-07-20T00:59:05;7.07;;;2.58;;
23470;SDS011;11908;50.806;4.424;2023-07-20T01:01:30;10.63;;;3.17;;
23470;SDS011;11908;50.806;4.424;2023-07-20T01:03:56;10.95;;;3.22;;
23470;SDS011;11908;50.806;4.424;2023-07-20T01:09:19;7.82;;;3.20;;
23470;SDS011;11908;50.806;4.424;2023-07-20T01:11:57;7.88;;;2.88;;
23470;SDS011;11908;50.806;4.424;2023-07-20T01:14:32;9.13;;;3.00;;
23470;SDS011;11908;50.806;4.424;2023-07-20T01:16:59;6.88;;;2.75;;
23470;SDS011;11908;50.806;4.424;2023-07-20T01:19:24;9.73;;;3.10;;
23470;SDS011;11908;50.806;4.424;2023-07-20T01:21:55;8.80;;;2.88;;
23470;SDS011;11908;50.806;4.424;2023-07-20T01:27:27;10.07;;;2.90;;
23470;SDS011;11908;50.806;4.424;2023-07-20T01:30:39;10.60;;;3.13;;
23470;SDS011;11908;50.806;4.424;2023-07-20T01:33:08;7.88;;;3.17;;
23470;SDS011;11908;50.806;4.424;2023-07-20T01:35:36;5.47;;;2.80;;
23470;SDS011;11908;50.806;4.424;2023-07-20T01:38:03;11.65;;;3.33;;
23470;SDS011;11908;50.806;4.424;2023-07-20T01:40:29;8.70;;;3.30;;
23470;SDS011;11908;50.806;4.424;2023-07-20T01:42:55;9.02;;;3.15;;
23470;SDS011;11908;50.806;4.424;2023-07-20T01:45:21;8.15;;;2.97;;
23470;SDS011;11908;50.806;4.424;2023-07-20T01:47:47;8.07;;;3.15;;
23470;SDS011;11908;50.806;4.424;2023-07-20T01:50:13;7.43;;;3.33;;
23470;SDS011;11908;50.806;4.424;2023-07-20T01:52:38;6.22;;;3.38;;
23470;SDS011;11908;50.806;4.424;2023-07-20T01:55:04;12.63;;;3.10;;
23470;SDS011;11908;50.806;4.424;2023-07-20T01:57:30;6.97;;;3.25;;
23470;SDS011;11908;50.806;4.424;2023-07-20T01:59:56;11.50;;;4.10;;
23470;SDS011;11908;50.806;4.424;2023-07-20T02:02:23;8.63;;;3.55;;
23470;SDS011;11908;50.806;4.424;2023-07-20T02:04:51;10.73;;;3.90;;
23470;SDS011;11908;50.806;4.424;2023-07-20T02:07:17;15.77;;;5.15;;
23470;SDS011;11908;50.806;4.424;2023-07-20T02:09:43;9.25;;;4.05;;
23470;SDS011;11908;50.806;4.424;2023-07-20T02:12:08;12.55;;;4.72;;
23470;SDS011;11908;50.806;4.424;2023-07-20T02:14:34;9.35;;;4.13;;
23470;SDS011;11908;50.806;4.424;2023-07-20T02:17:00;12.07;;;4.53;;
23470;SDS011;11908;50.806;4.424;2023-07-20T02:19:26;9.05;;;4.22;;
23470;SDS011;11908;50.806;4.424;2023-07-20T02:21:52;12.32;;;4.18;;
23470;SDS011;11908;50.806;4.424;2023-07-20T02:24:18;8.30;;;4.18;;
23470;SDS011;11908;50.806;4.424;2023-07-20T02:26:43;13.23;;;4.72;;
23470;SDS011;11908;50.806;4.424;2023-07-20T02:29:09;11.30;;;4.38;;
23470;SDS011;11908;50.806;4.424;2023-07-20T02:31:37;8.30;;;4.38;;
23470;SDS011;11908;50.806;4.424;2023-07-20T02:34:04;13.50;;;5.05;;
23470;SDS011;11908;50.806;4.424;2023-07-20T02:36:30;13.48;;;5.18;;
23470;SDS011;11908;50.806;4.424;2023-07-20T02:38:57;13.13;;;5.47;;
23470;SDS011;11908;50.806;4.424;2023-07-20T02:41:23;11.57;;;6.25;;
23470;SDS011;11908;50.806;4.424;2023-07-20T02:43:49;12.73;;;6.18;;
23470;SDS011;11908;50.806;4.424;2023-07-20T02:46:15;15.15;;;6.13;;
23470;SDS011;11908;50.806;4.424;2023-07-20T02:48:41;15.57;;;5.75;;
23470;SDS011;11908;50.806;4.424;2023-07-20T02:51:06;15.00;;;5.93;;
23470;SDS011;11908;50.806;4.424;2023-07-20T02:53:32;13.75;;;6.43;;
23470;SDS011;11908;50.806;4.424;2023-07-20T02:55:58;11.82;;;5.85;;
23470;SDS011;11908;50.806;4.424;2023-07-20T02:58:24;8.88;;;5.43;;
23470;SDS011;11908;50.806;4.424;2023-07-20T03:00:50;13.68;;;6.07;;
23470;SDS011;11908;50.806;4.424;2023-07-20T03:03:15;13.93;;;6.50;;
23470;SDS011;11908;50.806;4.424;2023-07-20T03:05:41;13.82;;;6.60;;
23470;SDS011;11908;50.806;4.424;2023-07-20T03:08:07;18.63;;;6.38;;
23470;SDS011;11908;50.806;4.424;2023-07-20T03:10:38;14.85;;;6.47;;
23470;SDS011;11908;50.806;4.424;2023-07-20T03:13:06;16.35;;;6.93;;
23470;SDS011;11908;50.806;4.424;2023-07-20T03:15:32;15.15;;;7.05;;
23470;SDS011;11908;50.806;4.424;2023-07-20T03:17:59;12.98;;;6.10;;
23470;SDS011;11908;50.806;4.424;2023-07-20T03:20:25;19.85;;;7.13;;
23470;SDS011;11908;50.806;4.424;2023-07-20T03:22:50;14.77;;;6.78;;
23470;SDS011;11908;50.806;4.424;2023-07-20T03:25:16;13.13;;;7.22;;
23470;SDS011;11908;50.806;4.424;2023-07-20T03:27:42;14.88;;;7.93;;
23470;SDS011;11908;50.806;4.424;2023-07-20T03:30:08;16.08;;;7.82;;
23470;SDS011;11908;50.806;4.424;2023-07-20T03:32:35;18.23;;;8.70;;
23470;SDS011;11908;50.806;4.424;2023-07-20T03:35:00;20.00;;;7.75;;
23470;SDS011;11908;50.806;4.424;2023-07-20T03:37:27;16.30;;;7.38;;
23470;SDS011;11908;50.806;4.424;2023-07-20T03:39:52;18.10;;;6.90;;
23470;SDS011;11908;50.806;4.424;2023-07-20T03:42:18;14.20;;;6.65;;
23470;SDS011;11908;50.806;4.424;2023-07-20T03:44:44;15.27;;;6.72;;
23470;SDS011;11908;50.806;4.424;2023-07-20T03:47:09;13.82;;;6.93;;
23470;SDS011;11908;50.806;4.424;2023-07-20T03:49:35;15.18;;;6.65;;
23470;SDS011;11908;50.806;4.424;2023-07-20T03:52:01;16.13;;;7.07;;
23470;SDS011;11908;50.806;4.424;2023-07-20T03:54:29;20.77;;;7.80;;
23470;SDS011;11908;50.806;4.424;2023-07-20T03:56:55;21.70;;;8.13;;
23470;SDS011;11908;50.806;4.424;2023-07-20T03:59:21;16.75;;;7.57;;
23470;SDS011;11908;50.806;4.424;2023-07-20T04:01:46;13.45;;;6.97;;
23470;SDS011;11908;50.806;4.424;2023-07-20T04:04:13;16.65;;;8.13;;
23470;SDS011;11908;50.806;4.424;2023-07-20T04:06:40;14.98;;;7.85;;
23470;SDS011;11908;50.806;4.424;2023-07-20T04:09:09;17.00;;;7.70;;
23470;SDS011;11908;50.806;4.424;2023-07-20T04:11:36;19.85;;;7.85;;
23470;SDS011;11908;50.806;4.424;2023-07-20T04:14:01;14.30;;;8.48;;
23470;SDS011;11908;50.806;4.424;2023-07-20T04:16:27;20.25;;;8.98;;
23470;SDS011;11908;50.806;4.424;2023-07-20T04:18:54;14.00;;;7.15;;
23470;SDS011;11908;50.806;4.424;2023-07-20T04:21:21;14.07;;;7.97;;
23470;SDS011;11908;50.806;4.424;2023-07-20T04:23:47;19.83;;;8.70;;
23470;SDS011;11908;50.806;4.424;2023-07-20T04:26:13;16.67;;;7.75;;
23470;SDS011;11908;50.806;4.424;2023-07-20T04:28:39;17.80;;;7.88;;
23470;SDS011;11908;50.806;4.424;2023-07-20T04:31:13;18.92;;;8.75;;
23470;SDS011;11908;50.806;4.424;2023-07-20T04:33:40;15.90;;;9.30;;
23470;SDS011;11908;50.806;4.424;2023-07-20T04:36:06;13.15;;;8.35;;
23470;SDS011;11908;50.806;4.424;2023-07-20T04:38:32;20.25;;;9.52;;
23470;SDS011;11908;50.806;4.424;2023-07-20T04:40:58;18.63;;;8.43;;
23470;SDS011;11908;50.806;4.424;2023-07-20T04:43:24;20.98;;;8.52;;
23470;SDS011;11908;50.806;4.424;2023-07-20T04:45:50;17.25;;;7.93;;
23470;SDS011;11908;50.806;4.424;2023-07-20T04:48:16;16.45;;;8.63;;
23470;SDS011;11908;50.806;4.424;2023-07-20T04:50:43;21.60;;;9.50;;
23470;SDS011;11908;50.806;4.424;2023-07-20T04:53:10;15.02;;;8.00;;
23470;SDS011;11908;50.806;4.424;2023-07-20T04:55:37;20.83;;;9.35;;
23470;SDS011;11908;50.806;4.424;2023-07-20T04:58:03;17.15;;;9.15;;
23470;SDS011;11908;50.806;4.424;2023-07-20T05:00:29;15.77;;;9.70;;
23470;SDS011;11908;50.806;4.424;2023-07-20T05:02:55;16.27;;;9.23;;
23470;SDS011;11908;50.806;4.424;2023-07-20T05:05:21;11.93;;;8.75;;
23470;SDS011;11908;50.806;4.424;2023-07-20T05:07:47;23.17;;;10.50;;
23470;SDS011;11908;50.806;4.424;2023-07-20T05:10:12;15.32;;;9.80;;
23470;SDS011;11908;50.806;4.424;2023-07-20T05:12:38;13.15;;;9.05;;
23470;SDS011;11908;50.806;4.424;2023-07-20T05:15:04;18.70;;;9.52;;
23470;SDS011;11908;50.806;4.424;2023-07-20T05:17:30;19.10;;;10.38;;
23470;SDS011;11908;50.806;4.424;2023-07-20T05:19:55;17.15;;;10.10;;
23470;SDS011;11908;50.806;4.424;2023-07-20T05:22:21;17.35;;;9.98;;
23470;SDS011;11908;50.806;4.424;2023-07-20T05:24:47;17.75;;;9.95;;
23470;SDS011;11908;50.806;4.424;2023-07-20T05:27:13;21.50;;;10.77;;
23470;SDS011;11908;50.806;4.424;2023-07-20T05:29:43;19.83;;;9.45;;
23470;SDS011;11908;50.806;4.424;2023-07-20T05:32:09;17.35;;;10.07;;
23470;SDS011;11908;50.806;4.424;2023-07-20T05:34:35;16.65;;;10.15;;
23470;SDS011;11908;50.806;4.424;2023-07-20T05:37:00;21.33;;;10.88;;
23470;SDS011;11908;50.806;4.424;2023-07-20T05:39:26;17.38;;;10.05;;
23470;SDS011;11908;50.806;4.424;2023-07-20T05:41:52;16.38;;;9.65;;
23470;SDS011;11908;50.806;4.424;2023-07-20T05:44:17;21.25;;;9.55;;
23470;SDS011;11908;50.806;4.424;2023-07-20T05:46:43;16.98;;;9.60;;
23470;SDS011;11908;50.806;4.424;2023-07-20T05:49:09;19.10;;;9.88;;
23470;SDS011;11908;50.806;4.424;2023-07-20T05:51:35;20.25;;;9.45;;
23470;SDS011;11908;50.806;4.424;2023-07-20T05:54:01;16.17;;;9.65;;
23470;SDS011;11908;50.806;4.424;2023-07-20T05:56:27;16.17;;;9.00;;
23470;SDS011;11908;50.806;4.424;2023-07-20T05:58:52;19.17;;;9.23;;
23470;SDS011;11908;50.806;4.424;2023-07-20T06:01:18;16.25;;;9.93;;
23470;SDS011;11908;50.806;4.424;2023-07-20T06:03:44;20.00;;;9.38;;
23470;SDS011;11908;50.806;4.424;2023-07-20T06:06:10;20.38;;;9.57;;
23470;SDS011;11908;50.806;4.424;2023-07-20T06:08:37;18.73;;;9.00;;
23470;SDS011;11908;50.806;4.424;2023-07-20T06:11:03;20.02;;;10.00;;
23470;SDS011;11908;50.806;4.424;2023-07-20T06:13:29;14.82;;;9.30;;
23470;SDS011;11908;50.806;4.424;2023-07-20T06:15:54;15.43;;;8.77;;
23470;SDS011;11908;50.806;4.424;2023-07-20T06:18:22;19.23;;;8.80;;
23470;SDS011;11908;50.806;4.424;2023-07-20T06:20:48;13.07;;;7.22;;
23470;SDS011;11908;50.806;4.424;2023-07-20T06:23:15;14.25;;;8.45;;
23470;SDS011;11908;50.806;4.424;2023-07-20T06:25:40;13.88;;;7.88;;
23470;SDS011;11908;50.806;4.424;2023-07-20T06:28:06;12.07;;;7.68;;
23470;SDS011;11908;50.806;4.424;2023-07-20T06:30:33;16.63;;;9.00;;
23470;SDS011;11908;50.806;4.424;2023-07-20T06:32:59;13.52;;;7.55;;
23470;SDS011;11908;50.806;4.424;2023-07-20T06:35:25;15.07;;;8.52;;
23470;SDS011;11908;50.806;4.424;2023-07-20T06:37:51;13.57;;;8.73;;
23470;SDS011;11908;50.806;4.424;2023-07-20T06:40:17;14.88;;;8.82;;
23470;SDS011;11908;50.806;4.424;2023-07-20T06:42:43;13.43;;;7.97;;
23470;SDS011;11908;50.806;4.424;2023-07-20T06:45:09;16.00;;;8.52;;
23470;SDS011;11908;50.806;4.424;2023-07-20T06:47:37;12.52;;;7.85;;
23470;SDS011;11908;50.806;4.424;2023-07-20T06:50:04;16.90;;;8.27;;
23470;SDS011;11908;50.806;4.424;2023-07-20T06:52:31;14.23;;;7.85;;
23470;SDS011;11908;50.806;4.424;2023-07-20T06:54:57;15.18;;;8.05;;
23470;SDS011;11908;50.806;4.424;2023-07-20T06:57:22;15.80;;;7.93;;
23470;SDS011;11908;50.806;4.424;2023-07-20T06:59:48;15.45;;;8.75;;
23470;SDS011;11908;50.806;4.424;2023-07-20T07:02:14;12.88;;;8.20;;
23470;SDS011;11908;50.806;4.424;2023-07-20T07:04:40;14.45;;;7.63;;
23470;SDS011;11908;50.806;4.424;2023-07-20T07:07:06;18.60;;;7.65;;
23470;SDS011;11908;50.806;4.424;2023-07-20T07:09:32;10.35;;;6.72;;
23470;SDS011;11908;50.806;4.424;2023-07-20T07:11:58;12.95;;;7.55;;
23470;SDS011;11908;50.806;4.424;2023-07-20T07:14:23;12.57;;;6.90;;
23470;SDS011;11908;50.806;4.424;2023-07-20T07:16:49;10.10;;;6.30;;
23470;SDS011;11908;50.806;4.424;2023-07-20T07:19:15;11.75;;;5.75;;
23470;SDS011;11908;50.806;4.424;2023-07-20T07:21:40;11.10;;;4.93;;
23470;SDS011;11908;50.806;4.424;2023-07-20T07:24:06;9.35;;;5.03;;
23470;SDS011;11908;50.806;4.424;2023-07-20T07:26:32;7.50;;;4.68;;
23470;SDS011;11908;50.806;4.424;2023-07-20T07:28:58;6.57;;;3.90;;
23470;SDS011;11908;50.806;4.424;2023-07-20T07:31:24;7.10;;;3.42;;
23470;SDS011;11908;50.806;4.424;2023-07-20T07:33:50;7.63;;;3.78;;
23470;SDS011;11908;50.806;4.424;2023-07-20T07:36:16;6.72;;;3.70;;
23470;SDS011;11908;50.806;4.424;2023-07-20T07:38:42;5.70;;;3.50;;
23470;SDS011;11908;50.806;4.424;2023-07-20T07:41:08;5.53;;;2.88;;
23470;SDS011;11908;50.806;4.424;2023-07-20T07:43:33;6.80;;;2.97;;
23470;SDS011;11908;50.806;4.424;2023-07-20T07:46:00;6.05;;;2.53;;
23470;SDS011;11908;50.806;4.424;2023-07-20T07:48:26;5.95;;;2.63;;
23470;SDS011;11908;50.806;4.424;2023-07-20T07:50:53;5.78;;;3.35;;
23470;SDS011;11908;50.806;4.424;2023-07-20T07:53:19;7.90;;;3.30;;
23470;SDS011;11908;50.806;4.424;2023-07-20T07:55:47;7.47;;;3.60;;
23470;SDS011;11908;50.806;4.424;2023-07-20T07:58:13;6.43;;;3.90;;
23470;SDS011;11908;50.806;4.424;2023-07-20T08:00:39;7.53;;;3.70;;
23470;SDS011;11908;50.806;4.424;2023-07-20T08:03:08;6.05;;;3.55;;
23470;SDS011;11908;50.806;4.424;2023-07-20T08:05:34;7.35;;;3.35;;
23470;SDS011;11908;50.806;4.424;2023-07-20T08:08:02;6.72;;;2.85;;
23470;SDS011;11908;50.806;4.424;2023-07-20T08:10:31;6.50;;;2.78;;
23470;SDS011;11908;50.806;4.424;2023-07-20T08:12:57;4.30;;;2.53;;
23470;SDS011;11908;50.806;4.424;2023-07-20T08:15:22;4.00;;;1.70;;
23470;SDS011;11908;50.806;4.424;2023-07-20T08:17:48;5.32;;;1.95;;
23470;SDS011;11908;50.806;4.424;2023-07-20T08:20:16;7.07;;;2.05;;
23470;SDS011;11908;50.806;4.424;2023-07-20T08:22:42;6.38;;;2.30;;
23470;SDS011;11908;50.806;4.424;2023-07-20T08:25:08;4.35;;;2.33;;
23470;SDS011;11908;50.806;4.424;2023-07-20T08:27:34;4.25;;;1.90;;
23470;SDS011;11908;50.806;4.424;2023-07-20T08:30:01;4.40;;;1.98;;
23470;SDS011;11908;50.806;4.424;2023-07-20T08:32:27;4.68;;;2.00;;
23470;SDS011;11908;50.806;4.424;2023-07-20T08:34:53;3.45;;;2.00;;
23470;SDS011;11908;50.806;4.424;2023-07-20T08:37:19;8.35;;;2.85;;
23470;SDS011;11908;50.806;4.424;2023-07-20T08:39:44;6.97;;;1.90;;
23470;SDS011;11908;50.806;4.424;2023-07-20T08:42:10;4.07;;;1.50;;
23470;SDS011;11908;50.806;4.424;2023-07-20T08:44:37;2.45;;;1.50;;
23470;SDS011;11908;50.806;4.424;2023-07-20T08:47:04;3.58;;;1.50;;
23470;SDS011;11908;50.806;4.424;2023-07-20T08:49:32;4.78;;;1.83;;
23470;SDS011;11908;50.806;4.424;2023-07-20T08:51:59;6.68;;;1.70;;
23470;SDS011;11908;50.806;4.424;2023-07-20T08:54:29;2.60;;;1.40;;
23470;SDS011;11908;50.806;4.424;2023-07-20T08:57:02;4.13;;;1.52;;
23470;SDS011;11908;50.806;4.424;2023-07-20T08:59:28;3.50;;;1.40;;
23470;SDS011;11908;50.806;4.424;2023-07-20T09:01:56;3.90;;;1.23;;
23470;SDS011;11908;50.806;4.424;2023-07-20T09:04:22;2.22;;;1.13;;
23470;SDS011;11908;50.806;4.424;2023-07-20T09:06:49;4.30;;;1.20;;
23470;SDS011;11908;50.806;4.424;2023-07-20T09:09:14;3.40;;;1.20;;
23470;SDS011;11908;50.806;4.424;2023-07-20T09:11:40;4.78;;;1.35;;
23470;SDS011;11908;50.806;4.424;2023-07-20T09:14:07;1.67;;;0.85;;
23470;SDS011;11908;50.806;4.424;2023-07-20T09:16:47;2.70;;;1.00;;
23470;SDS011;11908;50.806;4.424;2023-07-20T09:19:14;4.07;;;1.10;;
23470;SDS011;11908;50.806;4.424;2023-07-20T09:21:50;2.05;;;0.90;;
23470;SDS011;11908;50.806;4.424;2023-07-20T09:24:17;2.00;;;1.10;;
23470;SDS011;11908;50.806;4.424;2023-07-20T09:26:44;2.63;;;1.10;;
23470;SDS011;11908;50.806;4.424;2023-07-20T09:29:19;1.63;;;0.93;;
23470;SDS011;11908;50.806;4.424;2023-07-20T09:31:58;2.60;;;1.10;;
23470;SDS011;11908;50.806;4.424;2023-07-20T09:34:31;2.10;;;0.80;;
23470;SDS011;11908;50.806;4.424;2023-07-20T09:37:00;2.90;;;0.93;;
23470;SDS011;11908;50.806;4.424;2023-07-20T09:39:26;2.30;;;0.80;;
23470;SDS011;11908;50.806;4.424;2023-07-20T09:41:52;3.20;;;1.67;;
23470;SDS011;11908;50.806;4.424;2023-07-20T09:44:18;1.45;;;1.00;;
23470;SDS011;11908;50.806;4.424;2023-07-20T09:46:45;1.15;;;0.60;;
23470;SDS011;11908;50.806;4.424;2023-07-20T09:49:17;2.45;;;0.90;;
23470;SDS011;11908;50.806;4.424;2023-07-20T09:51:43;2.17;;;0.90;;
23470;SDS011;11908;50.806;4.424;2023-07-20T09:54:10;2.15;;;0.65;;
23470;SDS011;11908;50.806;4.424;2023-07-20T09:56:38;1.83;;;0.80;;
23470;SDS011;11908;50.806;4.424;2023-07-20T09:59:04;2.13;;;1.00;;
23470;SDS011;11908;50.806;4.424;2023-07-20T10:01:30;3.20;;;0.80;;
23470;SDS011;11908;50.806;4.424;2023-07-20T10:03:59;1.85;;;0.85;;
23470;SDS011;11908;50.806;4.424;2023-07-20T10:06:29;2.88;;;0.80;;
23470;SDS011;11908;50.806;4.424;2023-07-20T10:09:00;1.17;;;0.60;;
23470;SDS011;11908;50.806;4.424;2023-07-20T10:11:33;2.83;;;0.75;;
23470;SDS011;11908;50.806;4.424;2023-07-20T10:14:03;2.35;;;0.80;;
23470;SDS011;11908;50.806;4.424;2023-07-20T10:16:36;0.70;;;0.50;;
23470;SDS011;11908;50.806;4.424;2023-07-20T10:19:17;1.58;;;0.77;;
23470;SDS011;11908;50.806;4.424;2023-07-20T10:21:56;1.40;;;0.60;;
23470;SDS011;11908;50.806;4.424;2023-07-20T10:26:55;3.33;;;0.70;;
23470;SDS011;11908;50.806;4.424;2023-07-20T10:29:21;1.45;;;0.70;;
23470;SDS011;11908;50.806;4.424;2023-07-20T10:31:48;2.65;;;0.80;;
23470;SDS011;11908;50.806;4.424;2023-07-20T10:34:15;1.35;;;0.82;;
23470;SDS011;11908;50.806;4.424;2023-07-20T10:36:44;2.70;;;0.82;;
23470;SDS011;11908;50.806;4.424;2023-07-20T10:39:27;2.25;;;0.70;;
23470;SDS011;11908;50.806;4.424;2023-07-20T10:44:57;0.98;;;0.55;;
23470;SDS011;11908;50.806;4.424;2023-07-20T10:47:26;3.60;;;0.80;;
23470;SDS011;11908;50.806;4.424;2023-07-20T10:49:58;1.52;;;0.68;;
23470;SDS011;11908;50.806;4.424;2023-07-20T10:52:37;2.83;;;0.75;;
23470;SDS011;11908;50.806;4.424;2023-07-20T10:55:15;1.95;;;0.55;;
23470;SDS011;11908;50.806;4.424;2023-07-20T10:57:41;1.85;;;0.70;;
23470;SDS011;11908;50.806;4.424;2023-07-20T11:00:08;2.63;;;0.93;;
23470;SDS011;11908;50.806;4.424;2023-07-20T11:02:42;1.65;;;0.77;;
23470;SDS011;11908;50.806;4.424;2023-07-20T11:05:31;2.80;;;0.80;;
23470;SDS011;11908;50.806;4.424;2023-07-20T11:08:00;1.65;;;0.52;;
23470;SDS011;11908;50.806;4.424;2023-07-20T11:10:29;1.48;;;0.80;;
23470;SDS011;11908;50.806;4.424;2023-07-20T11:18:25;1.48;;;0.80;;
23470;SDS011;11908;50.806;4.424;2023-07-20T11:20:51;3.05;;;1.00;;
23470;SDS011;11908;50.806;4.424;2023-07-20T11:23:18;3.45;;;0.90;;
23470;SDS011;11908;50.806;4.424;2023-07-20T11:25:45;1.52;;;0.95;;
23470;SDS011;11908;50.806;4.424;2023-07-20T11:28:11;4.55;;;0.98;;
23470;SDS011;11908;50.806;4.424;2023-07-20T11:30:37;1.67;;;1.00;;
23470;SDS011;11908;50.806;4.424;2023-07-20T11:33:07;2.00;;;1.00;;
23470;SDS011;11908;50.806;4.424;2023-07-20T11:35:44;1.95;;;1.00;;
23470;SDS011;11908;50.806;4.424;2023-07-20T11:38:13;2.53;;;1.20;;
23470;SDS011;11908;50.806;4.424;2023-07-20T11:40:45;3.78;;;1.42;;
23470;SDS011;11908;50.806;4.424;2023-07-20T11:43:14;2.90;;;1.40;;
23470;SDS011;11908;50.806;4.424;2023-07-20T11:45:40;2.67;;;1.42;;
23470;SDS011;11908;50.806;4.424;2023-07-20T11:48:05;2.40;;;1.30;;
23470;SDS011;11908;50.806;4.424;2023-07-20T11:50:31;5.18;;;1.30;;
23470;SDS011;11908;50.806;4.424;2023-07-20T11:53:03;2.17;;;1.30;;
23470;SDS011;11908;50.806;4.424;2023-07-20T11:55:28;1.83;;;1.20;;
23470;SDS011;11908;50.806;4.424;2023-07-20T11:58:07;1.70;;;1.05;;
23470;SDS011;11908;50.806;4.424;2023-07-20T12:00:34;1.65;;;1.30;;
23470;SDS011;11908;50.806;4.424;2023-07-20T12:03:00;3.35;;;1.40;;
23470;SDS011;11908;50.806;4.424;2023-07-20T12:05:26;5.32;;;1.52;;
23470;SDS011;11908;50.806;4.424;2023-07-20T12:07:52;2.92;;;1.45;;
23470;SDS011;11908;50.806;4.424;2023-07-20T12:10:28;6.47;;;1.52;;
23470;SDS011;11908;50.806;4.424;2023-07-20T12:12:55;1.48;;;1.33;;
23470;SDS011;11908;50.806;4.424;2023-07-20T12:15:27;3.60;;;1.45;;
23470;SDS011;11908;50.806;4.424;2023-07-20T12:17:59;3.47;;;1.52;;
23470;SDS011;11908;50.806;4.424;2023-07-20T12:20:32;2.65;;;1.10;;
23470;SDS011;11908;50.806;4.424;2023-07-20T12:23:03;3.88;;;1.27;;
23470;SDS011;11908;50.806;4.424;2023-07-20T12:25:39;6.30;;;1.40;;
23470;SDS011;11908;50.806;4.424;2023-07-20T12:28:06;3.33;;;1.30;;
23470;SDS011;11908;50.806;4.424;2023-07-20T12:30:37;1.65;;;1.35;;
23470;SDS011;11908;50.806;4.424;2023-07-20T12:33:03;2.67;;;1.30;;
23470;SDS011;11908;50.806;4.424;2023-07-20T12:35:30;1.55;;;1.10;;
23470;SDS011;11908;50.806;4.424;2023-07-20T12:37:56;2.35;;;1.25;;
23470;SDS011;11908;50.806;4.424;2023-07-20T12:40:22;4.47;;;1.33;;
23470;SDS011;11908;50.806;4.424;2023-07-20T12:42:48;1.77;;;1.20;;
23470;SDS011;11908;50.806;4.424;2023-07-20T12:45:13;2.47;;;0.95;;
23470;SDS011;11908;50.806;4.424;2023-07-20T12:47:39;5.50;;;1.48;;
23470;SDS011;11908;50.806;4.424;2023-07-20T12:50:06;4.50;;;1.30;;
23470;SDS011;11908;50.806;4.424;2023-07-20T12:52:34;1.70;;;1.30;;
23470;SDS011;11908;50.806;4.424;2023-07-20T12:55:01;2.50;;;1.08;;
23470;SDS011;11908;50.806;4.424;2023-07-20T12:57:27;4.45;;;1.27;;
23470;SDS011;11908;50.806;4.424;2023-07-20T12:59:53;4.95;;;1.50;;
23470;SDS011;11908;50.806;4.424;2023-07-20T13:02:19;3.35;;;1.58;;
23470;SDS011;11908;50.806;4.424;2023-07-20T13:04:44;4.30;;;1.55;;
23470;SDS011;11908;50.806;4.424;2023-07-20T13:07:10;4.22;;;1.50;;
23470;SDS011;11908;50.806;4.424;2023-07-20T13:09:39;3.83;;;1.80;;
23470;SDS011;11908;50.806;4.424;2023-07-20T13:12:05;4.85;;;1.60;;
23470;SDS011;11908;50.806;4.424;2023-07-20T13:14:31;2.22;;;1.63;;
23470;SDS011;11908;50.806;4.424;2023-07-20T13:16:57;2.78;;;1.50;;
23470;SDS011;11908;50.806;4.424;2023-07-20T13:19:22;2.95;;;1.35;;
23470;SDS011;11908;50.806;4.424;2023-07-20T13:21:48;1.85;;;1.25;;
23470;SDS011;11908;50.806;4.424;2023-07-20T13:24:14;3.03;;;1.63;;
23470;SDS011;11908;50.806;4.424;2023-07-20T13:26:40;5.78;;;1.50;;
23470;SDS011;11908;50.806;4.424;2023-07-20T13:29:06;2.05;;;1.45;;
23470;SDS011;11908;50.806;4.424;2023-07-20T13:31:31;4.03;;;1.45;;
23470;SDS011;11908;50.806;4.424;2023-07-20T13:33:57;4.68;;;1.90;;
23470;SDS011;11908;50.806;4.424;2023-07-20T13:36:23;2.13;;;1.80;;
23470;SDS011;11908;50.806;4.424;2023-07-20T13:38:49;3.65;;;1.50;;
23470;SDS011;11908;50.806;4.424;2023-07-20T13:41:14;4.10;;;1.58;;
23470;SDS011;11908;50.806;4.424;2023-07-20T13:43:41;3.75;;;1.80;;
23470;SDS011;11908;50.806;4.424;2023-07-20T13:46:07;3.05;;;1.42;;
23470;SDS011;11908;50.806;4.424;2023-07-20T13:48:33;2.08;;;1.50;;
23470;SDS011;11908;50.806;4.424;2023-07-20T13:50:58;4.60;;;1.63;;
23470;SDS011;11908;50.806;4.424;2023-07-20T13:53:24;2.47;;;1.67;;
23470;SDS011;11908;50.806;4.424;2023-07-20T13:55:50;3.40;;;1.70;;
23470;SDS011;11908;50.806;4.424;2023-07-20T13:58:17;1.60;;;1.50;;
23470;SDS011;11908;50.806;4.424;2023-07-20T14:00:42;3.03;;;1.58;;
23470;SDS011;11908;50.806;4.424;2023-07-20T14:03:08;2.42;;;1.60;;
23470;SDS011;11908;50.806;4.424;2023-07-20T14:05:34;2.35;;;1.33;;
23470;SDS011;11908;50.806;4.424;2023-07-20T14:08:00;5.30;;;1.40;;
23470;SDS011;11908;50.806;4.424;2023-07-20T14:10:26;4.03;;;1.63;;
23470;SDS011;11908;50.806;4.424;2023-07-20T14:12:51;2.00;;;1.48;;
23470;SDS011;11908;50.806;4.424;2023-07-20T14:15:17;2.20;;;1.08;;
23470;SDS011;11908;50.806;4.424;2023-07-20T14:17:44;2.33;;;1.67;;
23470;SDS011;11908;50.806;4.424;2023-07-20T14:20:09;1.92;;;1.27;;
23470;SDS011;11908;50.806;4.424;2023-07-20T14:22:36;5.90;;;1.50;;
23470;SDS011;11908;50.806;4.424;2023-07-20T14:25:02;3.15;;;1.50;;
23470;SDS011;11908;50.806;4.424;2023-07-20T14:27:27;3.85;;;1.17;;
23470;SDS011;11908;50.806;4.424;2023-07-20T14:29:53;3.17;;;1.58;;
23470;SDS011;11908;50.806;4.424;2023-07-20T14:32:20;4.57;;;1.17;;
23470;SDS011;11908;50.806;4.424;2023-07-20T14:34:45;1.90;;;1.10;;
23470;SDS011;11908;50.806;4.424;2023-07-20T14:37:11;2.00;;;1.13;;
23470;SDS011;11908;50.806;4.424;2023-07-20T14:39:38;1.75;;;1.08;;
23470;SDS011;11908;50.806;4.424;2023-07-20T14:42:03;1.45;;;1.15;;
23470;SDS011;11908;50.806;4.424;2023-07-20T14:44:29;5.38;;;1.20;;
23470;SDS011;11908;50.806;4.424;2023-07-20T14:46:55;1.70;;;1.30;;
23470;SDS011;11908;50.806;4.424;2023-07-20T14:49:21;2.03;;;1.42;;
23470;SDS011;11908;50.806;4.424;2023-07-20T14:51:47;1.83;;;1.38;;
23470;SDS011;11908;50.806;4.424;2023-07-20T14:54:14;2.35;;;1.42;;
23470;SDS011;11908;50.806;4.424;2023-07-20T14:56:47;2.05;;;1.20;;
23470;SDS011;11908;50.806;4.424;2023-07-20T14:59:15;2.55;;;1.55;;